createdAt,value
2019-05-12T00:01:18.539Z,6.42
2019-05-12T00:06:23.276Z,6.13
2019-05-12T00:11:30.697Z,6.50
2019-05-12T00:16:38.581Z,5.06
2019-05-12T00:21:45.145Z,4.40
2019-05-12T00:26:52.546Z,5.00
2019-05-12T00:31:59.915Z,5.10
2019-05-12T00:37:08.336Z,6.04
2019-05-12T00:42:14.325Z,5.49
2019-05-12T00:47:21.744Z,6.60
2019-05-12T00:52:29.197Z,6.05
2019-05-12T00:57:38.289Z,6.94
2019-05-12T01:02:43.548Z,7.31
2019-05-12T01:07:51.232Z,8.02
2019-05-12T01:12:58.293Z,8.79
2019-05-12T01:18:04.818Z,7.79
2019-05-12T01:23:12.718Z,9.92
2019-05-12T01:28:20.104Z,10.07
2019-05-12T01:33:27.778Z,7.99
2019-05-12T01:38:34.932Z,8.14
2019-05-12T01:43:42.365Z,7.60
2019-05-12T01:48:49.755Z,7.32
2019-05-12T01:54:10.571Z,6.67
2019-05-12T01:59:04.162Z,7.11
2019-05-12T02:04:11.546Z,8.03
2019-05-12T02:09:18.892Z,9.60
2019-05-12T02:14:27.566Z,7.84
2019-05-12T02:19:33.213Z,7.20
2019-05-12T02:24:40.637Z,10.14
2019-05-12T02:29:48.097Z,9.85
2019-05-12T02:34:55.506Z,10.43
2019-05-12T02:40:04.714Z,8.28
2019-05-12T02:45:09.805Z,9.99
2019-05-12T02:50:17.229Z,9.80
2019-05-12T02:55:25.626Z,8.63
2019-05-12T03:00:34.947Z,9.32
2019-05-12T03:05:38.586Z,7.92
2019-05-12T03:10:46.002Z,8.76
2019-05-12T03:15:54.855Z,8.21
2019-05-12T03:21:00.346Z,8.77
2019-05-12T03:26:07.770Z,8.06
2019-05-12T03:31:22.500Z,10.48
2019-05-12T03:36:32.238Z,9.32
2019-05-12T03:41:28.972Z,9.42
2019-05-12T03:46:36.693Z,7.78
2019-05-12T03:51:45.689Z,8.01
2019-05-12T03:56:51.030Z,7.19
2019-05-12T04:01:58.353Z,10.21
2019-05-12T04:07:05.783Z,8.82
2019-05-12T04:12:14.798Z,7.24
2019-05-12T04:17:20.101Z,8.91
2019-05-12T04:22:27.428Z,6.24
2019-05-12T04:27:35.065Z,7.14
2019-05-12T04:32:44.834Z,8.72
2019-05-12T04:37:49.183Z,7.65
2019-05-12T04:42:56.523Z,11.77
2019-05-12T04:48:05.162Z,10.36
2019-05-12T04:53:10.845Z,10.41
2019-05-12T04:58:18.353Z,11.33
2019-05-12T05:03:25.766Z,12.71
2019-05-12T05:08:34.886Z,12.59
2019-05-12T05:13:40.062Z,11.80
2019-05-12T05:18:47.546Z,11.49
2019-05-12T05:23:55.027Z,10.12
2019-05-12T05:29:04.320Z,12.64
2019-05-12T05:34:09.351Z,15.34
2019-05-12T05:39:16.742Z,20.18
2019-05-12T05:44:24.200Z,17.90
2019-05-12T05:49:31.586Z,17.10
2019-05-12T05:54:40.204Z,15.08
2019-05-12T05:59:46.004Z,14.34
2019-05-12T06:04:56.262Z,15.12
2019-05-12T06:10:00.371Z,12.05
2019-05-12T06:15:08.975Z,11.87
2019-05-12T06:20:14.729Z,14.43
2019-05-12T06:25:26.123Z,14.84
2019-05-12T06:30:29.068Z,12.42
2019-05-12T06:35:42.082Z,12.20
2019-05-12T06:40:45.334Z,13.08
2019-05-12T06:45:50.380Z,10.40
2019-05-12T06:50:58.098Z,12.77
2019-05-12T06:56:09.476Z,9.84
2019-05-12T07:01:19.249Z,8.54
2019-05-12T07:06:19.958Z,8.75
2019-05-12T07:11:26.266Z,6.78
2019-05-12T07:16:34.157Z,6.43
2019-05-12T07:21:40.526Z,6.87
2019-05-12T07:26:48.373Z,5.24
2019-05-12T07:31:55.113Z,5.18
2019-05-12T07:37:04.424Z,5.34
2019-05-12T07:42:09.499Z,3.87
2019-05-12T07:47:19.150Z,2.70
2019-05-12T07:52:24.321Z,4.47
2019-05-12T07:57:33.913Z,3.53
2019-05-12T08:02:37.858Z,3.24
2019-05-12T08:07:45.254Z,2.69
2019-05-12T08:12:59.399Z,1.52
2019-05-12T08:17:59.817Z,1.44
2019-05-12T08:23:10.383Z,2.88
2019-05-12T08:28:18.173Z,2.96
2019-05-12T08:33:23.768Z,5.72
2019-05-12T08:38:28.184Z,5.26
2019-05-12T08:43:40.690Z,3.51
2019-05-12T08:48:44.652Z,7.36
2019-05-12T08:53:56.279Z,4.23
2019-05-12T08:58:56.886Z,4.25
2019-05-12T09:04:06.707Z,4.73
2019-05-12T09:09:11.322Z,4.62
2019-05-12T09:14:18.935Z,4.71
2019-05-12T09:19:27.265Z,4.04
2019-05-12T09:24:33.758Z,3.42
2019-05-12T09:29:40.145Z,3.40
2019-05-12T09:34:52.925Z,3.74
2019-05-12T09:39:54.645Z,3.66
2019-05-12T09:45:08.149Z,3.46
2019-05-12T09:50:09.564Z,3.60
2019-05-12T09:55:16.110Z,2.61
2019-05-12T10:00:23.975Z,3.83
2019-05-12T10:05:36.189Z,2.50
2019-05-12T10:10:40.334Z,2.97
2019-05-12T10:15:44.508Z,2.64
2019-05-12T10:20:53.516Z,3.35
2019-05-12T10:26:06.344Z,3.56
2019-05-12T10:31:05.960Z,2.99
2019-05-12T10:36:13.424Z,2.80
2019-05-12T10:41:20.823Z,4.24
2019-05-12T10:46:28.705Z,2.89
2019-05-12T10:51:35.187Z,3.51
2019-05-12T10:56:43.806Z,4.64
2019-05-12T11:01:49.706Z,4.06
2019-05-12T11:06:57.207Z,4.14
2019-05-12T11:12:04.778Z,3.70
2019-05-12T11:17:13.805Z,3.46
2019-05-12T11:22:19.345Z,4.49
2019-05-12T11:27:26.748Z,2.94
2019-05-12T11:32:37.739Z,3.24
2019-05-12T11:37:41.377Z,3.54
2019-05-12T11:42:54.435Z,3.02
2019-05-12T11:47:56.936Z,3.00
2019-05-12T11:53:04.294Z,3.08
2019-05-12T11:58:11.372Z,2.92
2019-05-12T12:03:18.169Z,3.26
2019-05-12T12:08:26.323Z,3.32
2019-05-12T12:13:31.047Z,3.55
2019-05-12T12:18:38.674Z,3.75
2019-05-12T12:23:50.047Z,3.34
2019-05-12T12:28:53.817Z,2.83
2019-05-12T12:34:00.142Z,2.90
2019-05-12T12:39:07.610Z,2.82
2019-05-12T12:44:15.207Z,6.46
2019-05-12T12:49:23.354Z,4.24
2019-05-12T12:54:29.646Z,2.18
2019-05-12T12:59:42.821Z,1.59
2019-05-12T13:04:39.668Z,1.45
2019-05-12T13:09:44.623Z,2.82
2019-05-12T13:14:53.248Z,2.00
2019-05-12T13:19:59.038Z,2.41
2019-05-12T13:25:08.603Z,1.76
2019-05-12T13:30:20.170Z,2.34
2019-05-12T13:35:20.868Z,2.31
2019-05-12T13:40:29.875Z,2.17
2019-05-12T13:45:35.452Z,2.19
2019-05-12T13:50:43.419Z,2.03
2019-05-12T13:55:49.985Z,4.16
2019-05-12T14:01:13.341Z,2.71
2019-05-12T14:06:04.502Z,2.75
2019-05-12T14:11:11.961Z,2.30
2019-05-12T14:16:19.612Z,2.88
2019-05-12T14:21:27.122Z,2.21
2019-05-12T14:26:39.491Z,2.51
2019-05-12T14:31:45.345Z,3.36
2019-05-12T14:36:48.562Z,3.22
2019-05-12T14:41:55.977Z,2.02
2019-05-12T14:47:03.856Z,2.82
2019-05-12T14:52:10.582Z,3.14
2019-05-12T14:57:18.110Z,2.63
2019-05-12T15:02:28.222Z,2.06
2019-05-12T15:07:32.558Z,1.82
2019-05-12T15:12:40.163Z,1.94
2019-05-12T15:17:47.590Z,1.81
2019-05-12T15:22:55.461Z,2.24
2019-05-12T15:28:03.936Z,3.17
2019-05-12T15:33:10.111Z,2.65
2019-05-12T15:38:17.613Z,1.71
2019-05-12T15:43:25.046Z,2.65
2019-05-12T15:48:34.269Z,2.79
2019-05-12T15:53:39.855Z,2.71
2019-05-12T15:58:47.426Z,2.47
2019-05-12T16:03:54.858Z,3.17
2019-05-12T16:09:04.003Z,3.16
2019-05-12T16:14:09.301Z,2.78
2019-05-12T16:19:16.860Z,2.47
2019-05-12T16:24:27.143Z,3.50
2019-05-12T16:29:33.326Z,2.47
2019-05-12T16:34:44.998Z,2.42
2019-05-12T16:39:47.482Z,2.89
2019-05-12T16:44:56.144Z,2.21
2019-05-12T16:49:59.368Z,2.82
2019-05-12T16:55:06.838Z,4.16
2019-05-12T17:00:14.434Z,2.41
2019-05-12T17:05:23.861Z,2.51
2019-05-12T17:10:29.077Z,2.76
2019-05-12T17:15:36.552Z,2.77
2019-05-12T17:20:47.030Z,3.01
2019-05-12T17:25:51.208Z,3.61
2019-05-12T17:30:58.812Z,2.73
2019-05-12T17:36:11.676Z,3.25
2019-05-12T17:41:17.395Z,2.13
2019-05-12T17:46:23.195Z,2.66
2019-05-12T17:51:30.839Z,2.97
2019-05-12T17:56:38.657Z,3.07
2019-05-12T18:01:43.597Z,6.12
2019-05-12T18:06:49.458Z,4.39
2019-05-12T18:11:56.978Z,3.02
2019-05-12T18:17:08.705Z,2.66
2019-05-12T18:22:11.505Z,2.19
2019-05-12T18:27:19.048Z,2.99
2019-05-12T18:32:26.587Z,3.61
2019-05-12T18:37:34.486Z,3.03
2019-05-12T18:42:41.991Z,7.63
2019-05-12T18:47:49.568Z,2.87
2019-05-12T18:52:57.234Z,2.34
2019-05-12T18:58:04.847Z,2.59
2019-05-12T19:03:14.083Z,1.71
2019-05-12T19:08:20.402Z,3.12
2019-05-12T19:13:26.643Z,2.68
2019-05-12T19:18:37.177Z,3.87
2019-05-12T19:23:43.417Z,3.82
2019-05-12T19:28:53.099Z,4.91
2019-05-12T19:34:14.748Z,7.01
2019-05-12T19:39:03.531Z,4.69
2019-05-12T19:44:09.830Z,6.12
2019-05-12T19:49:20.175Z,7.18
2019-05-12T19:54:29.492Z,5.30
2019-05-12T19:59:34.000Z,4.55
2019-05-12T20:04:45.562Z,3.99
2019-05-12T20:14:56.758Z,3.92
2019-05-12T20:20:04.472Z,4.64
2019-05-12T20:25:09.286Z,2.95
2019-05-12T20:30:20.838Z,3.43
2019-05-12T20:35:24.158Z,3.78
2019-05-12T20:40:32.241Z,2.90
2019-05-12T20:45:40.864Z,5.71
2019-05-12T20:50:45.864Z,3.68
2019-05-12T20:55:54.743Z,3.57
2019-05-12T21:01:04.497Z,3.48
2019-05-12T21:06:07.652Z,4.22
2019-05-12T21:11:15.257Z,5.06
2019-05-12T21:16:31.167Z,4.76
2019-05-12T21:21:34.118Z,5.41
2019-05-12T21:26:38.030Z,5.59
2019-05-12T21:31:44.603Z,4.50
2019-05-12T21:36:50.767Z,5.50
2019-05-12T21:42:06.585Z,4.14
2019-05-12T21:47:10.205Z,4.62
2019-05-12T21:52:13.589Z,4.55
2019-05-12T21:57:19.275Z,5.90
2019-05-12T22:02:30.634Z,5.88
2019-05-12T22:07:38.089Z,5.50
2019-05-12T22:12:40.932Z,5.26
2019-05-12T22:17:48.383Z,4.48
2019-05-12T22:23:00.541Z,5.19
2019-05-12T22:28:07.831Z,5.45
2019-05-12T22:33:10.949Z,5.59
2019-05-12T22:38:20.977Z,4.92
2019-05-12T22:43:24.044Z,6.66
2019-05-12T22:48:37.078Z,5.76
2019-05-12T22:53:38.521Z,5.35
2019-05-12T22:58:45.933Z,6.08
2019-05-12T23:03:55.825Z,7.10
2019-05-12T23:09:00.761Z,6.60
2019-05-12T23:14:12.551Z,5.17
2019-05-12T23:19:15.315Z,6.85
2019-05-12T23:24:23.699Z,6.17
2019-05-12T23:29:30.943Z,6.02
2019-05-12T23:34:36.691Z,5.44
2019-05-12T23:39:44.307Z,5.80
2019-05-12T23:44:51.583Z,5.25
2019-05-12T23:49:58.935Z,7.55
2019-05-12T23:55:06.480Z,7.56
